sensor_id;sensor_type;location;lat;lon;timestamp;P1;durP1;ratioP1;P2;durP2;ratioP2
4634;SDS011;2330;48.158;11.816;2022-07-10T00:02:18;3.80;;;2.63;;
4634;SDS011;2330;48.158;11.816;2022-07-10T00:04:45;3.00;;;2.80;;
4634;SDS011;2330;48.158;11.816;2022-07-10T00:07:12;2.67;;;2.47;;
4634;SDS011;2330;48.158;11.816;2022-07-10T00:09:39;3.20;;;2.50;;
4634;SDS011;2330;48.158;11.816;2022-07-10T00:12:05;7.50;;;4.33;;
4634;SDS011;2330;48.158;11.816;2022-07-10T00:14:32;5.93;;;3.23;;
4634;SDS011;2330;48.158;11.816;2022-07-10T00:16:59;7.13;;;2.93;;
4634;SDS011;2330;48.158;11.816;2022-07-10T00:19:26;7.60;;;4.30;;
4634;SDS011;2330;48.158;11.816;2022-07-10T00:21:52;4.43;;;3.40;;
4634;SDS011;2330;48.158;11.816;2022-07-10T00:24:19;6.60;;;3.20;;
4634;SDS011;2330;48.158;11.816;2022-07-10T00:26:46;4.93;;;3.73;;
4634;SDS011;2330;48.158;11.816;2022-07-10T00:29:14;5.50;;;3.60;;
4634;SDS011;2330;48.158;11.816;2022-07-10T00:31:41;4.63;;;3.97;;
4634;SDS011;2330;48.158;11.816;2022-07-10T00:34:08;5.80;;;4.77;;
4634;SDS011;2330;48.158;11.816;2022-07-10T00:36:34;5.33;;;4.37;;
4634;SDS011;2330;48.158;11.816;2022-07-10T00:39:01;5.40;;;3.83;;
4634;SDS011;2330;48.158;11.816;2022-07-10T00:41:29;4.73;;;3.70;;
4634;SDS011;2330;48.158;11.816;2022-07-10T00:46:24;4.10;;;3.70;;
4634;SDS011;2330;48.158;11.816;2022-07-10T00:48:53;3.87;;;3.57;;
4634;SDS011;2330;48.158;11.816;2022-07-10T00:51:21;5.00;;;3.90;;
4634;SDS011;2330;48.158;11.816;2022-07-10T00:53:51;4.83;;;4.00;;
4634;SDS011;2330;48.158;11.816;2022-07-10T00:56:19;5.13;;;4.03;;
4634;SDS011;2330;48.158;11.816;2022-07-10T00:58:48;6.30;;;3.40;;
4634;SDS011;2330;48.158;11.816;2022-07-10T01:01:15;4.43;;;4.03;;
4634;SDS011;2330;48.158;11.816;2022-07-10T01:03:43;6.80;;;3.70;;
4634;SDS011;2330;48.158;11.816;2022-07-10T01:06:12;3.83;;;3.53;;
4634;SDS011;2330;48.158;11.816;2022-07-10T01:08:41;5.63;;;3.90;;
4634;SDS011;2330;48.158;11.816;2022-07-10T01:11:08;4.90;;;4.20;;
4634;SDS011;2330;48.158;11.816;2022-07-10T01:13:36;7.97;;;3.63;;
4634;SDS011;2330;48.158;11.816;2022-07-10T01:16:03;4.60;;;4.00;;
4634;SDS011;2330;48.158;11.816;2022-07-10T01:18:30;4.03;;;3.63;;
4634;SDS011;2330;48.158;11.816;2022-07-10T01:20:57;4.13;;;3.73;;
4634;SDS011;2330;48.158;11.816;2022-07-10T01:23:24;5.20;;;4.43;;
4634;SDS011;2330;48.158;11.816;2022-07-10T01:25:52;4.00;;;3.70;;
4634;SDS011;2330;48.158;11.816;2022-07-10T01:28:19;4.03;;;3.73;;
4634;SDS011;2330;48.158;11.816;2022-07-10T01:30:47;5.43;;;4.37;;
4634;SDS011;2330;48.158;11.816;2022-07-10T01:33:15;3.83;;;3.53;;
4634;SDS011;2330;48.158;11.816;2022-07-10T01:35:41;10.17;;;4.30;;
4634;SDS011;2330;48.158;11.816;2022-07-10T01:38:08;3.93;;;3.50;;
4634;SDS011;2330;48.158;11.816;2022-07-10T01:40:35;5.00;;;4.20;;
4634;SDS011;2330;48.158;11.816;2022-07-10T01:43:02;5.10;;;4.00;;
4634;SDS011;2330;48.158;11.816;2022-07-10T01:45:28;3.70;;;3.40;;
4634;SDS011;2330;48.158;11.816;2022-07-10T01:47:55;4.30;;;3.90;;
4634;SDS011;2330;48.158;11.816;2022-07-10T01:50:23;3.43;;;3.23;;
4634;SDS011;2330;48.158;11.816;2022-07-10T01:52:50;4.57;;;4.10;;
4634;SDS011;2330;48.158;11.816;2022-07-10T01:55:17;4.73;;;3.70;;
4634;SDS011;2330;48.158;11.816;2022-07-10T01:57:44;4.40;;;3.70;;
4634;SDS011;2330;48.158;11.816;2022-07-10T02:00:11;5.33;;;3.93;;
4634;SDS011;2330;48.158;11.816;2022-07-10T02:02:38;6.50;;;3.70;;
4634;SDS011;2330;48.158;11.816;2022-07-10T02:05:05;5.37;;;4.23;;
4634;SDS011;2330;48.158;11.816;2022-07-10T02:07:32;5.30;;;3.80;;
4634;SDS011;2330;48.158;11.816;2022-07-10T02:09:58;4.50;;;3.97;;
4634;SDS011;2330;48.158;11.816;2022-07-10T02:12:25;3.83;;;3.60;;
4634;SDS011;2330;48.158;11.816;2022-07-10T02:14:52;4.10;;;3.70;;
4634;SDS011;2330;48.158;11.816;2022-07-10T02:17:19;3.37;;;3.17;;
4634;SDS011;2330;48.158;11.816;2022-07-10T02:19:45;4.30;;;4.00;;
4634;SDS011;2330;48.158;11.816;2022-07-10T02:22:12;4.40;;;3.97;;
4634;SDS011;2330;48.158;11.816;2022-07-10T02:24:39;4.13;;;3.83;;
4634;SDS011;2330;48.158;11.816;2022-07-10T02:27:05;4.60;;;4.10;;
4634;SDS011;2330;48.158;11.816;2022-07-10T02:29:32;4.83;;;3.80;;
4634;SDS011;2330;48.158;11.816;2022-07-10T02:31:59;4.00;;;3.70;;
4634;SDS011;2330;48.158;11.816;2022-07-10T02:34:26;6.07;;;4.57;;
4634;SDS011;2330;48.158;11.816;2022-07-10T02:36:52;4.13;;;3.50;;
4634;SDS011;2330;48.158;11.816;2022-07-10T02:39:19;5.57;;;4.10;;
4634;SDS011;2330;48.158;11.816;2022-07-10T02:41:48;4.77;;;3.93;;
4634;SDS011;2330;48.158;11.816;2022-07-10T02:44:15;5.27;;;4.77;;
4634;SDS011;2330;48.158;11.816;2022-07-10T02:46:42;5.70;;;4.47;;
4634;SDS011;2330;48.158;11.816;2022-07-10T02:49:09;9.90;;;4.67;;
4634;SDS011;2330;48.158;11.816;2022-07-10T02:51:35;6.50;;;4.23;;
4634;SDS011;2330;48.158;11.816;2022-07-10T02:54:02;4.93;;;4.53;;
4634;SDS011;2330;48.158;11.816;2022-07-10T02:56:29;5.10;;;4.63;;
4634;SDS011;2330;48.158;11.816;2022-07-10T02:58:55;4.93;;;4.40;;
4634;SDS011;2330;48.158;11.816;2022-07-10T03:01:22;8.50;;;3.93;;
4634;SDS011;2330;48.158;11.816;2022-07-10T03:03:49;6.00;;;3.87;;
4634;SDS011;2330;48.158;11.816;2022-07-10T03:06:16;5.10;;;4.47;;
4634;SDS011;2330;48.158;11.816;2022-07-10T03:08:42;6.80;;;4.00;;
4634;SDS011;2330;48.158;11.816;2022-07-10T03:11:09;5.00;;;4.50;;
4634;SDS011;2330;48.158;11.816;2022-07-10T03:13:36;4.93;;;4.40;;
4634;SDS011;2330;48.158;11.816;2022-07-10T03:16:02;5.20;;;4.70;;
4634;SDS011;2330;48.158;11.816;2022-07-10T03:18:29;6.30;;;4.20;;
4634;SDS011;2330;48.158;11.816;2022-07-10T03:20:56;5.20;;;4.80;;
4634;SDS011;2330;48.158;11.816;2022-07-10T03:23:23;4.53;;;4.13;;
4634;SDS011;2330;48.158;11.816;2022-07-10T03:25:50;5.33;;;4.50;;
4634;SDS011;2330;48.158;11.816;2022-07-10T03:28:16;4.90;;;4.40;;
4634;SDS011;2330;48.158;11.816;2022-07-10T03:30:43;6.87;;;4.20;;
4634;SDS011;2330;48.158;11.816;2022-07-10T03:33:10;5.37;;;4.37;;
4634;SDS011;2330;48.158;11.816;2022-07-10T03:35:36;3.60;;;3.30;;
4634;SDS011;2330;48.158;11.816;2022-07-10T03:38:03;5.63;;;4.50;;
4634;SDS011;2330;48.158;11.816;2022-07-10T03:40:30;4.43;;;4.13;;
4634;SDS011;2330;48.158;11.816;2022-07-10T03:42:56;5.30;;;4.90;;
4634;SDS011;2330;48.158;11.816;2022-07-10T03:45:23;5.90;;;4.97;;
4634;SDS011;2330;48.158;11.816;2022-07-10T03:47:50;5.57;;;4.80;;
4634;SDS011;2330;48.158;11.816;2022-07-10T03:50:17;5.37;;;4.87;;
4634;SDS011;2330;48.158;11.816;2022-07-10T03:52:43;4.83;;;4.43;;
4634;SDS011;2330;48.158;11.816;2022-07-10T03:55:12;4.90;;;4.47;;
4634;SDS011;2330;48.158;11.816;2022-07-10T03:57:39;4.53;;;3.80;;
4634;SDS011;2330;48.158;11.816;2022-07-10T04:00:25;7.17;;;5.10;;
4634;SDS011;2330;48.158;11.816;2022-07-10T04:03:01;5.20;;;4.70;;
4634;SDS011;2330;48.158;11.816;2022-07-10T04:05:29;4.53;;;4.13;;
4634;SDS011;2330;48.158;11.816;2022-07-10T04:07:57;3.97;;;3.67;;
4634;SDS011;2330;48.158;11.816;2022-07-10T04:10:24;3.60;;;3.40;;
4634;SDS011;2330;48.158;11.816;2022-07-10T04:12:52;4.10;;;3.70;;
4634;SDS011;2330;48.158;11.816;2022-07-10T04:15:20;3.93;;;3.63;;
4634;SDS011;2330;48.158;11.816;2022-07-10T04:17:47;4.73;;;4.30;;
4634;SDS011;2330;48.158;11.816;2022-07-10T04:20:15;4.90;;;4.03;;
4634;SDS011;2330;48.158;11.816;2022-07-10T04:22:42;5.27;;;4.77;;
4634;SDS011;2330;48.158;11.816;2022-07-10T04:25:09;4.97;;;4.20;;
4634;SDS011;2330;48.158;11.816;2022-07-10T04:27:36;4.83;;;4.43;;
4634;SDS011;2330;48.158;11.816;2022-07-10T04:30:03;5.00;;;4.50;;
4634;SDS011;2330;48.158;11.816;2022-07-10T04:32:31;6.53;;;3.70;;
4634;SDS011;2330;48.158;11.816;2022-07-10T04:34:58;4.50;;;4.20;;
4634;SDS011;2330;48.158;11.816;2022-07-10T04:37:27;4.70;;;4.40;;
4634;SDS011;2330;48.158;11.816;2022-07-10T04:39:55;4.40;;;4.10;;
4634;SDS011;2330;48.158;11.816;2022-07-10T04:42:24;6.10;;;4.20;;
4634;SDS011;2330;48.158;11.816;2022-07-10T04:44:52;5.13;;;4.73;;
4634;SDS011;2330;48.158;11.816;2022-07-10T04:47:19;5.93;;;4.90;;
4634;SDS011;2330;48.158;11.816;2022-07-10T04:49:45;5.03;;;4.53;;
4634;SDS011;2330;48.158;11.816;2022-07-10T04:52:12;5.93;;;5.33;;
4634;SDS011;2330;48.158;11.816;2022-07-10T04:54:39;5.33;;;4.80;;
4634;SDS011;2330;48.158;11.816;2022-07-10T04:57:05;5.97;;;5.47;;
4634;SDS011;2330;48.158;11.816;2022-07-10T04:59:32;7.63;;;5.23;;
4634;SDS011;2330;48.158;11.816;2022-07-10T05:01:59;6.10;;;5.50;;
4634;SDS011;2330;48.158;11.816;2022-07-10T05:04:26;5.57;;;5.07;;
4634;SDS011;2330;48.158;11.816;2022-07-10T05:06:52;6.40;;;5.80;;
4634;SDS011;2330;48.158;11.816;2022-07-10T05:09:19;6.87;;;5.50;;
4634;SDS011;2330;48.158;11.816;2022-07-10T05:11:46;5.40;;;5.00;;
4634;SDS011;2330;48.158;11.816;2022-07-10T05:14:13;6.13;;;5.57;;
4634;SDS011;2330;48.158;11.816;2022-07-10T05:16:40;4.60;;;4.27;;
4634;SDS011;2330;48.158;11.816;2022-07-10T05:19:06;6.50;;;5.80;;
4634;SDS011;2330;48.158;11.816;2022-07-10T05:21:33;6.50;;;5.63;;
4634;SDS011;2330;48.158;11.816;2022-07-10T05:24:00;6.53;;;5.83;;
4634;SDS011;2330;48.158;11.816;2022-07-10T05:26:27;7.00;;;6.30;;
4634;SDS011;2330;48.158;11.816;2022-07-10T05:28:54;6.20;;;5.60;;
4634;SDS011;2330;48.158;11.816;2022-07-10T05:31:20;5.50;;;5.10;;
4634;SDS011;2330;48.158;11.816;2022-07-10T05:33:47;5.43;;;5.03;;
4634;SDS011;2330;48.158;11.816;2022-07-10T05:36:14;5.37;;;5.00;;
4634;SDS011;2330;48.158;11.816;2022-07-10T05:38:41;6.73;;;5.30;;
4634;SDS011;2330;48.158;11.816;2022-07-10T05:41:08;6.37;;;5.67;;
4634;SDS011;2330;48.158;11.816;2022-07-10T05:43:35;6.20;;;5.60;;
4634;SDS011;2330;48.158;11.816;2022-07-10T05:46:01;7.33;;;6.73;;
4634;SDS011;2330;48.158;11.816;2022-07-10T05:48:29;6.07;;;5.57;;
4634;SDS011;2330;48.158;11.816;2022-07-10T05:50:56;5.40;;;5.03;;
4634;SDS011;2330;48.158;11.816;2022-07-10T05:53:43;7.70;;;5.90;;
4634;SDS011;2330;48.158;11.816;2022-07-10T05:56:09;7.50;;;6.10;;
4634;SDS011;2330;48.158;11.816;2022-07-10T05:58:36;7.20;;;6.60;;
4634;SDS011;2330;48.158;11.816;2022-07-10T06:01:03;6.23;;;5.77;;
4634;SDS011;2330;48.158;11.816;2022-07-10T06:03:30;7.00;;;6.30;;
4634;SDS011;2330;48.158;11.816;2022-07-10T06:05:57;6.97;;;6.27;;
4634;SDS011;2330;48.158;11.816;2022-07-10T06:08:25;5.50;;;5.10;;
4634;SDS011;2330;48.158;11.816;2022-07-10T06:10:52;6.40;;;5.93;;
4634;SDS011;2330;48.158;11.816;2022-07-10T06:13:19;6.97;;;6.33;;
4634;SDS011;2330;48.158;11.816;2022-07-10T06:15:46;6.53;;;5.93;;
4634;SDS011;2330;48.158;11.816;2022-07-10T06:18:13;7.90;;;6.43;;
4634;SDS011;2330;48.158;11.816;2022-07-10T06:20:40;7.23;;;6.63;;
4634;SDS011;2330;48.158;11.816;2022-07-10T06:23:07;6.67;;;5.97;;
4634;SDS011;2330;48.158;11.816;2022-07-10T06:25:33;6.63;;;6.13;;
4634;SDS011;2330;48.158;11.816;2022-07-10T06:28:00;5.93;;;5.53;;
4634;SDS011;2330;48.158;11.816;2022-07-10T06:30:27;7.40;;;6.80;;
4634;SDS011;2330;48.158;11.816;2022-07-10T06:32:53;7.20;;;6.60;;
4634;SDS011;2330;48.158;11.816;2022-07-10T06:35:20;7.73;;;7.13;;
4634;SDS011;2330;48.158;11.816;2022-07-10T06:37:47;5.90;;;5.50;;
4634;SDS011;2330;48.158;11.816;2022-07-10T06:40:13;6.67;;;6.17;;
4634;SDS011;2330;48.158;11.816;2022-07-10T06:42:43;7.67;;;6.97;;
4634;SDS011;2330;48.158;11.816;2022-07-10T06:45:10;6.30;;;5.90;;
4634;SDS011;2330;48.158;11.816;2022-07-10T06:47:37;6.40;;;5.80;;
4634;SDS011;2330;48.158;11.816;2022-07-10T06:50:25;5.97;;;5.37;;
4634;SDS011;2330;48.158;11.816;2022-07-10T06:52:54;5.70;;;5.27;;
4634;SDS011;2330;48.158;11.816;2022-07-10T06:55:21;6.03;;;5.53;;
4634;SDS011;2330;48.158;11.816;2022-07-10T06:57:49;5.17;;;4.77;;
4634;SDS011;2330;48.158;11.816;2022-07-10T07:00:16;6.73;;;6.13;;
4634;SDS011;2330;48.158;11.816;2022-07-10T07:02:43;5.90;;;5.40;;
4634;SDS011;2330;48.158;11.816;2022-07-10T07:05:10;5.80;;;5.40;;
4634;SDS011;2330;48.158;11.816;2022-07-10T07:07:38;6.13;;;5.63;;
4634;SDS011;2330;48.158;11.816;2022-07-10T07:10:05;5.37;;;4.93;;
4634;SDS011;2330;48.158;11.816;2022-07-10T07:12:34;7.27;;;6.67;;
4634;SDS011;2330;48.158;11.816;2022-07-10T07:15:00;6.03;;;5.53;;
4634;SDS011;2330;48.158;11.816;2022-07-10T07:17:27;6.90;;;6.30;;
4634;SDS011;2330;48.158;11.816;2022-07-10T07:20:00;6.37;;;5.87;;
4634;SDS011;2330;48.158;11.816;2022-07-10T07:22:46;6.77;;;6.27;;
4634;SDS011;2330;48.158;11.816;2022-07-10T07:25:32;19.63;;;6.50;;
4634;SDS011;2330;48.158;11.816;2022-07-10T07:27:58;9.90;;;6.77;;
4634;SDS011;2330;48.158;11.816;2022-07-10T07:30:25;6.50;;;5.90;;
4634;SDS011;2330;48.158;11.816;2022-07-10T07:32:52;6.83;;;6.23;;
4634;SDS011;2330;48.158;11.816;2022-07-10T07:35:18;7.67;;;6.57;;
4634;SDS011;2330;48.158;11.816;2022-07-10T07:37:46;6.47;;;5.93;;
4634;SDS011;2330;48.158;11.816;2022-07-10T07:40:15;6.03;;;5.43;;
4634;SDS011;2330;48.158;11.816;2022-07-10T07:42:46;6.03;;;5.43;;
4634;SDS011;2330;48.158;11.816;2022-07-10T07:45:13;12.27;;;6.30;;
4634;SDS011;2330;48.158;11.816;2022-07-10T07:47:43;6.60;;;6.13;;
4634;SDS011;2330;48.158;11.816;2022-07-10T07:50:18;5.83;;;5.20;;
4634;SDS011;2330;48.158;11.816;2022-07-10T07:52:47;5.20;;;4.70;;
4634;SDS011;2330;48.158;11.816;2022-07-10T07:55:15;6.53;;;5.00;;
4634;SDS011;2330;48.158;11.816;2022-07-10T07:57:43;5.20;;;4.80;;
4634;SDS011;2330;48.158;11.816;2022-07-10T08:00:11;5.10;;;4.70;;
4634;SDS011;2330;48.158;11.816;2022-07-10T08:02:39;5.23;;;4.83;;
4634;SDS011;2330;48.158;11.816;2022-07-10T08:05:06;4.37;;;4.00;;
4634;SDS011;2330;48.158;11.816;2022-07-10T08:07:34;4.20;;;3.60;;
4634;SDS011;2330;48.158;11.816;2022-07-10T08:10:02;8.63;;;4.40;;
4634;SDS011;2330;48.158;11.816;2022-07-10T08:12:29;4.60;;;3.90;;
4634;SDS011;2330;48.158;11.816;2022-07-10T08:14:56;5.00;;;4.10;;
4634;SDS011;2330;48.158;11.816;2022-07-10T08:17:24;5.33;;;3.57;;
4634;SDS011;2330;48.158;11.816;2022-07-10T08:19:52;4.27;;;3.50;;
4634;SDS011;2330;48.158;11.816;2022-07-10T08:22:19;12.60;;;4.40;;
4634;SDS011;2330;48.158;11.816;2022-07-10T08:24:46;4.23;;;3.80;;
4634;SDS011;2330;48.158;11.816;2022-07-10T08:27:13;6.03;;;4.13;;
4634;SDS011;2330;48.158;11.816;2022-07-10T08:29:39;5.57;;;3.93;;
4634;SDS011;2330;48.158;11.816;2022-07-10T08:32:06;3.83;;;3.30;;
4634;SDS011;2330;48.158;11.816;2022-07-10T08:34:35;10.53;;;3.70;;
4634;SDS011;2330;48.158;11.816;2022-07-10T08:37:02;3.80;;;2.60;;
4634;SDS011;2330;48.158;11.816;2022-07-10T08:39:29;5.37;;;3.63;;
4634;SDS011;2330;48.158;11.816;2022-07-10T08:41:58;3.40;;;3.10;;
4634;SDS011;2330;48.158;11.816;2022-07-10T08:44:25;4.80;;;2.80;;
4634;SDS011;2330;48.158;11.816;2022-07-10T08:46:53;4.60;;;3.00;;
4634;SDS011;2330;48.158;11.816;2022-07-10T08:49:20;9.40;;;2.90;;
4634;SDS011;2330;48.158;11.816;2022-07-10T08:54:32;6.93;;;2.60;;
4634;SDS011;2330;48.158;11.816;2022-07-10T08:57:02;2.47;;;2.27;;
4634;SDS011;2330;48.158;11.816;2022-07-10T08:59:29;4.43;;;2.90;;
4634;SDS011;2330;48.158;11.816;2022-07-10T09:01:57;2.83;;;2.37;;
4634;SDS011;2330;48.158;11.816;2022-07-10T09:04:25;3.23;;;1.97;;
4634;SDS011;2330;48.158;11.816;2022-07-10T09:06:53;6.10;;;2.40;;
4634;SDS011;2330;48.158;11.816;2022-07-10T09:09:21;5.17;;;2.30;;
4634;SDS011;2330;48.158;11.816;2022-07-10T09:11:54;10.33;;;2.57;;
4634;SDS011;2330;48.158;11.816;2022-07-10T09:14:27;10.90;;;2.67;;
4634;SDS011;2330;48.158;11.816;2022-07-10T09:16:59;2.37;;;2.10;;
4634;SDS011;2330;48.158;11.816;2022-07-10T09:19:28;3.00;;;2.70;;
4634;SDS011;2330;48.158;11.816;2022-07-10T09:24:35;5.27;;;2.30;;
4634;SDS011;2330;48.158;11.816;2022-07-10T09:27:10;7.17;;;3.13;;
4634;SDS011;2330;48.158;11.816;2022-07-10T09:29:48;8.30;;;2.40;;
4634;SDS011;2330;48.158;11.816;2022-07-10T09:32:21;4.83;;;1.93;;
4634;SDS011;2330;48.158;11.816;2022-07-10T09:34:48;3.07;;;2.00;;
4634;SDS011;2330;48.158;11.816;2022-07-10T09:37:39;3.97;;;2.33;;
4634;SDS011;2330;48.158;11.816;2022-07-10T09:40:07;4.03;;;2.23;;
4634;SDS011;2330;48.158;11.816;2022-07-10T09:50:27;14.93;;;2.97;;
4634;SDS011;2330;48.158;11.816;2022-07-10T09:52:58;5.13;;;1.60;;
4634;SDS011;2330;48.158;11.816;2022-07-10T09:55:33;10.07;;;2.10;;
4634;SDS011;2330;48.158;11.816;2022-07-10T09:58:02;3.30;;;1.77;;
4634;SDS011;2330;48.158;11.816;2022-07-10T10:00:39;3.30;;;2.20;;
4634;SDS011;2330;48.158;11.816;2022-07-10T10:03:08;3.57;;;1.87;;
4634;SDS011;2330;48.158;11.816;2022-07-10T10:08:27;2.70;;;1.73;;
4634;SDS011;2330;48.158;11.816;2022-07-10T10:10:57;6.30;;;1.67;;
4634;SDS011;2330;48.158;11.816;2022-07-10T10:13:25;1.93;;;1.30;;
4634;SDS011;2330;48.158;11.816;2022-07-10T10:15:54;2.33;;;1.70;;
4634;SDS011;2330;48.158;11.816;2022-07-10T10:18:21;7.10;;;1.83;;
4634;SDS011;2330;48.158;11.816;2022-07-10T10:20:50;4.93;;;1.77;;
4634;SDS011;2330;48.158;11.816;2022-07-10T10:23:24;19.33;;;2.17;;
4634;SDS011;2330;48.158;11.816;2022-07-10T10:25:52;4.10;;;1.67;;
4634;SDS011;2330;48.158;11.816;2022-07-10T10:28:21;5.33;;;1.43;;
4634;SDS011;2330;48.158;11.816;2022-07-10T10:30:51;8.83;;;1.80;;
4634;SDS011;2330;48.158;11.816;2022-07-10T10:36:03;4.60;;;1.63;;
4634;SDS011;2330;48.158;11.816;2022-07-10T10:41:27;7.53;;;1.83;;
4634;SDS011;2330;48.158;11.816;2022-07-10T10:46:52;5.50;;;1.23;;
4634;SDS011;2330;48.158;11.816;2022-07-10T10:49:20;8.30;;;2.00;;
4634;SDS011;2330;48.158;11.816;2022-07-10T10:52:04;10.00;;;2.30;;
4634;SDS011;2330;48.158;11.816;2022-07-10T10:57:23;1.90;;;1.30;;
4634;SDS011;2330;48.158;11.816;2022-07-10T11:00:11;4.90;;;1.97;;
4634;SDS011;2330;48.158;11.816;2022-07-10T11:02:41;3.80;;;1.47;;
4634;SDS011;2330;48.158;11.816;2022-07-10T11:10:35;2.63;;;1.37;;
4634;SDS011;2330;48.158;11.816;2022-07-10T11:15:30;4.53;;;1.73;;
4634;SDS011;2330;48.158;11.816;2022-07-10T11:20:32;10.43;;;2.13;;
4634;SDS011;2330;48.158;11.816;2022-07-10T11:28:39;5.33;;;1.20;;
4634;SDS011;2330;48.158;11.816;2022-07-10T11:31:10;2.10;;;1.10;;
4634;SDS011;2330;48.158;11.816;2022-07-10T11:33:40;2.23;;;1.30;;
4634;SDS011;2330;48.158;11.816;2022-07-10T11:36:10;1.87;;;1.10;;
4634;SDS011;2330;48.158;11.816;2022-07-10T11:38:45;5.83;;;1.97;;
4634;SDS011;2330;48.158;11.816;2022-07-10T11:41:16;4.90;;;1.70;;
4634;SDS011;2330;48.158;11.816;2022-07-10T11:43:51;4.00;;;1.20;;
4634;SDS011;2330;48.158;11.816;2022-07-10T11:46:23;3.30;;;1.60;;
4634;SDS011;2330;48.158;11.816;2022-07-10T11:48:51;3.33;;;1.57;;
4634;SDS011;2330;48.158;11.816;2022-07-10T11:56:39;6.00;;;1.60;;
4634;SDS011;2330;48.158;11.816;2022-07-10T11:59:08;4.60;;;1.73;;
4634;SDS011;2330;48.158;11.816;2022-07-10T12:01:46;3.27;;;1.00;;
4634;SDS011;2330;48.158;11.816;2022-07-10T12:04:15;2.50;;;1.27;;
4634;SDS011;2330;48.158;11.816;2022-07-10T12:06:45;2.63;;;1.37;;
4634;SDS011;2330;48.158;11.816;2022-07-10T12:09:14;4.40;;;1.70;;
4634;SDS011;2330;48.158;11.816;2022-07-10T12:11:43;6.27;;;1.90;;
4634;SDS011;2330;48.158;11.816;2022-07-10T12:14:12;6.63;;;1.17;;
4634;SDS011;2330;48.158;11.816;2022-07-10T12:16:41;3.67;;;1.20;;
4634;SDS011;2330;48.158;11.816;2022-07-10T12:19:12;3.43;;;1.40;;
4634;SDS011;2330;48.158;11.816;2022-07-10T12:21:41;5.37;;;1.80;;
4634;SDS011;2330;48.158;11.816;2022-07-10T12:24:09;10.63;;;2.40;;
4634;SDS011;2330;48.158;11.816;2022-07-10T12:26:37;2.30;;;1.40;;
4634;SDS011;2330;48.158;11.816;2022-07-10T12:29:06;3.60;;;1.20;;
4634;SDS011;2330;48.158;11.816;2022-07-10T12:31:33;1.83;;;1.17;;
4634;SDS011;2330;48.158;11.816;2022-07-10T12:34:01;3.67;;;1.30;;
4634;SDS011;2330;48.158;11.816;2022-07-10T12:39:10;1.40;;;1.17;;
4634;SDS011;2330;48.158;11.816;2022-07-10T12:47:09;3.27;;;1.27;;
4634;SDS011;2330;48.158;11.816;2022-07-10T12:52:31;5.50;;;1.83;;
4634;SDS011;2330;48.158;11.816;2022-07-10T12:55:06;2.70;;;1.03;;
4634;SDS011;2330;48.158;11.816;2022-07-10T13:00:18;5.73;;;1.33;;
4634;SDS011;2330;48.158;11.816;2022-07-10T13:02:46;8.83;;;1.67;;
4634;SDS011;2330;48.158;11.816;2022-07-10T13:05:26;1.60;;;1.20;;
4634;SDS011;2330;48.158;11.816;2022-07-10T13:08:03;9.43;;;1.63;;
4634;SDS011;2330;48.158;11.816;2022-07-10T13:10:31;9.30;;;1.60;;
4634;SDS011;2330;48.158;11.816;2022-07-10T13:12:59;3.00;;;1.50;;
4634;SDS011;2330;48.158;11.816;2022-07-10T13:15:26;3.67;;;1.40;;
4634;SDS011;2330;48.158;11.816;2022-07-10T13:17:53;5.47;;;1.40;;
4634;SDS011;2330;48.158;11.816;2022-07-10T13:20:20;2.63;;;1.07;;
4634;SDS011;2330;48.158;11.816;2022-07-10T13:22:46;2.30;;;1.40;;
4634;SDS011;2330;48.158;11.816;2022-07-10T13:25:13;3.23;;;1.60;;
4634;SDS011;2330;48.158;11.816;2022-07-10T13:27:40;1.80;;;1.23;;
4634;SDS011;2330;48.158;11.816;2022-07-10T13:30:08;2.40;;;1.20;;
4634;SDS011;2330;48.158;11.816;2022-07-10T13:32:35;2.90;;;1.30;;
4634;SDS011;2330;48.158;11.816;2022-07-10T13:35:02;3.57;;;0.97;;
4634;SDS011;2330;48.158;11.816;2022-07-10T13:37:28;3.27;;;1.50;;
4634;SDS011;2330;48.158;11.816;2022-07-10T13:39:56;5.30;;;1.60;;
4634;SDS011;2330;48.158;11.816;2022-07-10T13:42:24;5.20;;;1.50;;
4634;SDS011;2330;48.158;11.816;2022-07-10T13:44:50;2.00;;;1.00;;
4634;SDS011;2330;48.158;11.816;2022-07-10T13:47:17;4.60;;;1.20;;
4634;SDS011;2330;48.158;11.816;2022-07-10T13:49:44;8.80;;;1.47;;
4634;SDS011;2330;48.158;11.816;2022-07-10T13:52:11;1.07;;;0.90;;
4634;SDS011;2330;48.158;11.816;2022-07-10T13:54:37;3.07;;;1.00;;
4634;SDS011;2330;48.158;11.816;2022-07-10T13:57:04;9.60;;;1.50;;
4634;SDS011;2330;48.158;11.816;2022-07-10T13:59:31;2.03;;;1.00;;
4634;SDS011;2330;48.158;11.816;2022-07-10T14:01:58;2.17;;;1.40;;
4634;SDS011;2330;48.158;11.816;2022-07-10T14:04:25;5.13;;;1.20;;
4634;SDS011;2330;48.158;11.816;2022-07-10T14:06:51;2.23;;;1.10;;
4634;SDS011;2330;48.158;11.816;2022-07-10T14:09:20;2.93;;;1.00;;
4634;SDS011;2330;48.158;11.816;2022-07-10T14:11:49;6.57;;;1.33;;
4634;SDS011;2330;48.158;11.816;2022-07-10T14:14:16;7.30;;;1.23;;
4634;SDS011;2330;48.158;11.816;2022-07-10T14:16:43;4.90;;;1.93;;
4634;SDS011;2330;48.158;11.816;2022-07-10T14:19:10;3.23;;;1.20;;
4634;SDS011;2330;48.158;11.816;2022-07-10T14:21:39;3.80;;;1.00;;
4634;SDS011;2330;48.158;11.816;2022-07-10T14:24:06;3.87;;;1.17;;
4634;SDS011;2330;48.158;11.816;2022-07-10T14:26:33;9.30;;;1.67;;
4634;SDS011;2330;48.158;11.816;2022-07-10T14:29:02;2.50;;;1.00;;
4634;SDS011;2330;48.158;11.816;2022-07-10T14:31:29;7.70;;;1.77;;
4634;SDS011;2330;48.158;11.816;2022-07-10T14:33:57;11.03;;;1.17;;
4634;SDS011;2330;48.158;11.816;2022-07-10T14:36:23;4.87;;;1.57;;
4634;SDS011;2330;48.158;11.816;2022-07-10T14:38:53;3.23;;;1.10;;
4634;SDS011;2330;48.158;11.816;2022-07-10T14:41:20;1.57;;;1.00;;
4634;SDS011;2330;48.158;11.816;2022-07-10T14:43:48;2.40;;;1.20;;
4634;SDS011;2330;48.158;11.816;2022-07-10T14:46:15;12.27;;;1.50;;
4634;SDS011;2330;48.158;11.816;2022-07-10T14:48:42;4.17;;;1.60;;
4634;SDS011;2330;48.158;11.816;2022-07-10T14:51:09;3.70;;;0.93;;
4634;SDS011;2330;48.158;11.816;2022-07-10T14:53:36;1.37;;;1.00;;
4634;SDS011;2330;48.158;11.816;2022-07-10T14:56:05;1.77;;;1.10;;
4634;SDS011;2330;48.158;11.816;2022-07-10T14:58:32;7.90;;;1.57;;
4634;SDS011;2330;48.158;11.816;2022-07-10T15:01:19;1.80;;;0.90;;
4634;SDS011;2330;48.158;11.816;2022-07-10T15:03:45;3.33;;;1.10;;
4634;SDS011;2330;48.158;11.816;2022-07-10T15:06:12;3.13;;;1.10;;
4634;SDS011;2330;48.158;11.816;2022-07-10T15:08:39;2.43;;;0.90;;
4634;SDS011;2330;48.158;11.816;2022-07-10T15:11:05;2.60;;;1.00;;
4634;SDS011;2330;48.158;11.816;2022-07-10T15:13:33;9.63;;;1.63;;
4634;SDS011;2330;48.158;11.816;2022-07-10T15:16:00;1.47;;;0.83;;
4634;SDS011;2330;48.158;11.816;2022-07-10T15:18:27;3.23;;;1.27;;
4634;SDS011;2330;48.158;11.816;2022-07-10T15:20:54;13.50;;;1.57;;
4634;SDS011;2330;48.158;11.816;2022-07-10T15:23:20;2.50;;;1.20;;
4634;SDS011;2330;48.158;11.816;2022-07-10T15:25:47;3.60;;;1.13;;
4634;SDS011;2330;48.158;11.816;2022-07-10T15:28:14;2.40;;;0.93;;
4634;SDS011;2330;48.158;11.816;2022-07-10T15:30:41;3.53;;;1.00;;
4634;SDS011;2330;48.158;11.816;2022-07-10T15:33:09;1.30;;;0.80;;
4634;SDS011;2330;48.158;11.816;2022-07-10T15:35:36;12.50;;;1.90;;
4634;SDS011;2330;48.158;11.816;2022-07-10T15:38:04;5.73;;;1.67;;
4634;SDS011;2330;48.158;11.816;2022-07-10T15:40:31;2.40;;;1.20;;
4634;SDS011;2330;48.158;11.816;2022-07-10T15:42:58;11.03;;;1.30;;
4634;SDS011;2330;48.158;11.816;2022-07-10T15:45:25;3.20;;;1.10;;
4634;SDS011;2330;48.158;11.816;2022-07-10T15:47:53;2.40;;;1.00;;
4634;SDS011;2330;48.158;11.816;2022-07-10T15:50:20;4.83;;;1.03;;
4634;SDS011;2330;48.158;11.816;2022-07-10T15:52:46;1.90;;;1.20;;
4634;SDS011;2330;48.158;11.816;2022-07-10T15:55:13;3.10;;;1.00;;
4634;SDS011;2330;48.158;11.816;2022-07-10T15:57:40;3.57;;;1.10;;
4634;SDS011;2330;48.158;11.816;2022-07-10T16:00:07;3.23;;;1.00;;
4634;SDS011;2330;48.158;11.816;2022-07-10T16:02:35;5.87;;;1.33;;
4634;SDS011;2330;48.158;11.816;2022-07-10T16:05:03;1.37;;;1.03;;
4634;SDS011;2330;48.158;11.816;2022-07-10T16:07:30;2.37;;;0.93;;
4634;SDS011;2330;48.158;11.816;2022-07-10T16:09:57;1.87;;;0.90;;
4634;SDS011;2330;48.158;11.816;2022-07-10T16:12:24;2.80;;;0.70;;